Time;durP1;ratioP1;P1;durP2;ratioP2;P2;SDS_P1;SDS_P2;PMS_P1;PMS_P2;Temp;Humidity;BMP_temperature;BMP_pressure;BME280_temperature;BME280_humidity;BME280_pressure;Samples;Min_cycle;Max_cycle;Signal;HPM_P1;HPM_P2
2022/01/14 00:02:49;;;;;;;53.55;21.65;;;0.60;99.90;;;;;;5077589;28;20041;-93
2022/01/14 00:05:21;;;;;;;55.38;20.77;;;0.60;99.90;;;;;;5077565;28;20506;-94
2022/01/14 00:07:47;;;;;;;41.88;19.30;;;0.60;99.90;;;;;;5077709;28;20024;-94
2022/01/14 00:10:13;;;;;;;48.85;19.67;;;0.50;99.90;;;;;;5077555;28;20028;-94
2022/01/14 00:12:50;;;;;;;43.38;18.85;;;0.50;99.90;;;;;;5077260;28;20042;-94
2022/01/14 00:17:54;;;;;;;51.55;20.58;;;0.30;99.90;;;;;;5095580;28;20024;-94
2022/01/14 00:20:21;;;;;;;56.70;22.98;;;0.30;99.90;;;;;;5075314;28;20139;-93
2022/01/14 00:34:11;;;;;;;45.35;20.95;;;0.30;99.90;;;;;;5095536;28;20461;-94
2022/01/14 00:36:45;;;;;;;59.35;23.88;;;0.30;99.90;;;;;;5077098;28;20028;-94
2022/01/14 00:39:13;;;;;;;54.55;22.23;;;0.30;99.90;;;;;;5077249;28;20027;-94
2022/01/14 00:42:24;;;;;;;48.75;21.55;;;0.20;99.90;;;;;;5076468;28;20476;-93
2022/01/14 00:44:50;;;;;;;49.78;21.95;;;0.30;99.90;;;;;;5076947;28;20066;-94
2022/01/14 00:47:16;;;;;;;58.95;23.67;;;0.30;99.90;;;;;;5076886;28;20077;-94
2022/01/14 00:50:22;;;;;;;58.65;23.45;;;0.30;99.90;;;;;;5076845;28;20157;-95
2022/01/14 00:52:48;;;;;;;60.10;25.75;;;0.30;99.90;;;;;;5076994;28;20458;-94
2022/01/14 00:55:17;;;;;;;71.88;26.92;;;0.30;99.90;;;;;;5076618;28;20067;-94
2022/01/14 01:01:05;;;;;;;71.95;28.92;;;0.20;99.90;;;;;;5094704;28;20022;-93
2022/01/14 01:04:04;;;;;;;75.28;28.63;;;0.20;99.90;;;;;;5076802;28;20535;-94
2022/01/14 01:06:30;;;;;;;79.60;28.73;;;0.20;99.90;;;;;;5089919;28;20025;-94
2022/01/14 01:08:56;;;;;;;61.35;26.33;;;0.10;99.90;;;;;;5056646;28;20133;-93
2022/01/14 01:15:17;;;;;;;67.63;24.58;;;0.20;99.90;;;;;;5074196;28;20422;-94
2022/01/14 01:17:44;;;;;;;61.22;24.17;;;0.20;99.90;;;;;;5056501;28;20032;-94
2022/01/14 01:20:20;;;;;;;65.72;25.40;;;0.20;99.90;;;;;;5056113;28;20037;-95
2022/01/14 01:22:48;;;;;;;57.80;25.65;;;0.20;99.90;;;;;;5056389;28;20031;-93
2022/01/14 01:25:17;;;;;;;67.20;27.42;;;0.20;99.90;;;;;;5056420;28;20051;-94
2022/01/14 01:27:56;;;;;;;58.33;25.10;;;0.10;99.90;;;;;;5056007;28;20081;-94
2022/01/14 01:33:01;;;;;;;71.20;28.27;;;0.10;99.90;;;;;;5094653;28;20154;-94
2022/01/14 01:35:28;;;;;;;73.32;29.17;;;0.10;99.90;;;;;;5076298;28;20028;-94
2022/01/14 01:37:57;;;;;;;67.68;29.17;;;0.10;99.90;;;;;;5076151;28;20032;-94
2022/01/14 01:40:25;;;;;;;73.25;27.92;;;0.10;99.90;;;;;;5076319;28;20028;-95
2022/01/14 01:42:52;;;;;;;72.43;27.80;;;0.00;99.90;;;;;;5076349;28;20035;-95
2022/01/14 01:45:32;;;;;;;63.13;26.35;;;0.00;99.90;;;;;;5076367;28;20034;-95
2022/01/14 01:47:57;;;;;;;80.40;29.42;;;0.00;99.90;;;;;;5076465;28;20020;-95
2022/01/14 01:50:30;;;;;;;81.03;29.77;;;0.00;99.90;;;;;;5076355;28;20032;-94
2022/01/14 01:53:05;;;;;;;76.07;30.52;;;0.00;99.90;;;;;;5075966;28;20026;-95
2022/01/14 01:55:30;;;;;;;72.47;26.95;;;0.00;99.90;;;;;;5076183;28;20127;-93
2022/01/14 01:58:38;;;;;;;76.82;28.30;;;-0.10;99.90;;;;;;5076259;28;20483;-94
2022/01/14 02:01:05;;;;;;;77.03;29.10;;;0.00;99.90;;;;;;5076060;28;20092;-94
2022/01/14 02:03:33;;;;;;;74.05;27.45;;;-0.10;99.90;;;;;;5076171;28;20024;-94
2022/01/14 02:06:37;;;;;;;82.07;27.25;;;-0.10;99.90;;;;;;5075961;28;20028;-95
2022/01/14 02:09:04;;;;;;;74.10;28.58;;;-0.10;99.90;;;;;;5076056;28;20024;-95
2022/01/14 02:11:51;;;;;;;71.50;28.15;;;-0.10;99.90;;;;;;5076018;28;20047;-94
2022/01/14 02:23:06;;;;;;;67.45;27.00;;;-0.10;99.90;;;;;;5092447;28;20636;-93
2022/01/14 02:25:32;;;;;;;76.05;29.23;;;-0.10;99.90;;;;;;5075813;28;20032;-94
2022/01/14 02:28:07;;;;;;;76.45;30.58;;;-0.10;99.90;;;;;;5076122;28;20028;-93
2022/01/14 02:30:45;;;;;;;71.65;28.60;;;0.00;99.90;;;;;;5076012;28;20028;-94
2022/01/14 02:33:12;;;;;;;71.72;27.52;;;-0.10;99.90;;;;;;5075964;28;20024;-94
2022/01/14 02:35:40;;;;;;;73.32;29.40;;;-0.10;99.90;;;;;;5075892;28;20483;-94
2022/01/14 02:38:55;;;;;;;84.57;30.08;;;-0.10;99.90;;;;;;5077402;28;20031;-94
2022/01/14 02:41:21;;;;;;;80.95;29.95;;;-0.10;99.90;;;;;;5079301;28;20024;-93
2022/01/14 02:43:47;;;;;;;78.18;29.92;;;-0.10;99.90;;;;;;5079102;28;20054;-94
2022/01/14 02:49:37;;;;;;;83.13;30.90;;;-0.10;99.90;;;;;;5096860;28;20016;-93
2022/01/14 02:52:05;;;;;;;89.68;30.77;;;-0.10;99.90;;;;;;5078618;28;20510;-92
2022/01/14 02:54:41;;;;;;;73.75;28.42;;;0.00;99.90;;;;;;5078864;28;20437;-93
2022/01/14 02:57:19;;;;;;;65.60;26.70;;;0.00;99.90;;;;;;5096557;28;20024;-92
2022/01/14 02:59:47;;;;;;;82.00;27.85;;;0.00;99.90;;;;;;5096776;28;20034;-93
2022/01/14 03:02:28;;;;;;;81.35;29.58;;;0.00;99.90;;;;;;5078807;28;20028;-93
2022/01/14 03:04:55;;;;;;;67.35;26.42;;;0.00;99.90;;;;;;5078720;28;20032;-93
2022/01/14 03:07:20;;;;;;;65.38;26.95;;;0.00;99.90;;;;;;5078642;28;20048;-94
2022/01/14 03:09:56;;;;;;;69.60;27.42;;;0.00;99.90;;;;;;5078685;28;20174;-94
2022/01/14 03:12:23;;;;;;;75.50;29.92;;;-0.10;99.90;;;;;;5078690;28;20115;-94
2022/01/14 03:14:48;;;;;;;72.60;28.00;;;0.00;99.90;;;;;;5078758;28;20380;-93
2022/01/14 03:17:24;;;;;;;76.70;29.42;;;0.00;99.90;;;;;;5078755;28;20020;-94
2022/01/14 03:19:50;;;;;;;68.85;26.20;;;0.00;99.90;;;;;;5078734;28;20031;-94
2022/01/14 03:22:20;;;;;;;71.20;26.77;;;-0.10;99.90;;;;;;5078041;28;20032;-94
2022/01/14 03:27:12;;;;;;;79.88;28.58;;;-0.10;99.90;;;;;;5096828;28;20119;-94
2022/01/14 03:29:39;;;;;;;68.72;26.45;;;0.00;99.90;;;;;;5078465;28;20016;-94
2022/01/14 03:32:08;;;;;;;78.75;29.77;;;-0.10;99.90;;;;;;5078165;28;20024;-93
2022/01/14 03:34:33;;;;;;;84.60;31.27;;;-0.10;99.90;;;;;;5078274;28;20024;-93
2022/01/14 03:37:11;;;;;;;87.65;31.60;;;0.00;99.90;;;;;;5078357;28;20170;-94
2022/01/14 03:39:37;;;;;;;94.07;33.03;;;0.00;99.90;;;;;;5078232;28;20181;-93
2022/01/14 03:45:25;;;;;;;86.43;30.30;;;0.10;99.90;;;;;;5095999;28;20081;-94
2022/01/14 03:47:50;;;;;;;93.57;33.50;;;0.30;99.90;;;;;;5078144;28;20020;-94
2022/01/14 03:50:43;;;;;;;106.13;38.17;;;0.30;99.90;;;;;;5077308;28;20111;-93
2022/01/14 03:53:11;;;;;;;104.95;36.58;;;0.40;99.90;;;;;;5077904;28;20020;-93
2022/01/14 03:55:38;;;;;;;111.68;38.00;;;0.50;99.90;;;;;;5077999;28;20047;-94
2022/01/14 03:58:13;;;;;;;127.35;43.90;;;0.60;99.90;;;;;;5078055;28;20024;-94
2022/01/14 04:00:39;;;;;;;129.25;44.75;;;0.80;99.90;;;;;;5078063;28;20031;-93
2022/01/14 04:03:06;;;;;;;137.13;46.88;;;0.90;99.90;;;;;;5078044;28;20032;-95
2022/01/14 04:08:54;;;;;;;126.95;44.92;;;1.20;99.90;;;;;;5096015;28;20027;-93
2022/01/14 04:12:00;;;;;;;134.60;46.97;;;1.30;99.90;;;;;;5077782;28;20449;-93
2022/01/14 04:16:52;;;;;;;131.30;47.30;;;1.50;99.90;;;;;;5076037;28;20390;-94
2022/01/14 04:26:10;;;;;;;135.57;50.80;;;1.60;99.90;;;;;;5055366;28;20044;-93
2022/01/14 04:28:35;;;;;;;129.05;48.58;;;1.60;99.90;;;;;;5037276;28;20024;-94
2022/01/14 04:31:19;;;;;;;141.95;50.17;;;1.70;99.90;;;;;;5038796;28;20028;-96
2022/01/14 04:33:45;;;;;;;143.73;49.72;;;1.70;99.90;;;;;;5050914;28;20032;-94
2022/01/14 04:37:01;;;;;;;137.35;49.83;;;1.70;99.90;;;;;;5057331;28;20035;-94
2022/01/14 04:39:26;;;;;;;134.45;49.05;;;1.70;99.90;;;;;;5070198;28;20469;-92
2022/01/14 04:45:29;;;;;;;145.48;50.10;;;1.70;99.90;;;;;;5054721;28;20028;-93
2022/01/14 04:47:56;;;;;;;133.48;50.10;;;1.80;99.90;;;;;;5054638;28;20523;-93
2022/01/14 04:51:14;;;;;;;130.40;48.50;;;1.80;99.90;;;;;;5054728;28;20025;-93
2022/01/14 04:53:39;;;;;;;125.55;48.40;;;1.80;99.90;;;;;;5073973;28;20447;-91
2022/01/14 04:56:05;;;;;;;134.52;49.08;;;1.80;99.90;;;;;;5055916;28;20063;-91
2022/01/14 04:59:09;;;;;;;119.90;46.25;;;1.70;99.90;;;;;;5089199;28;20025;-91
2022/01/14 05:01:34;;;;;;;133.20;49.47;;;1.80;99.90;;;;;;5056068;28;20442;-91
2022/01/14 05:04:00;;;;;;;124.93;48.33;;;1.80;99.90;;;;;;5056141;28;20024;-92
2022/01/14 05:07:01;;;;;;;128.82;49.40;;;1.80;99.90;;;;;;5056050;28;20067;-91
2022/01/14 05:09:34;;;;;;;130.30;50.40;;;1.80;99.90;;;;;;5055881;28;20108;-92
2022/01/14 05:12:06;;;;;;;123.28;46.28;;;1.70;99.90;;;;;;5055464;28;20025;-91
2022/01/14 05:14:38;;;;;;;139.60;49.17;;;1.80;99.90;;;;;;5073932;28;20033;-93
2022/01/14 05:17:04;;;;;;;133.13;48.15;;;1.80;99.90;;;;;;5056071;28;20021;-92
2022/01/14 05:19:30;;;;;;;103.55;44.33;;;1.80;99.90;;;;;;5055720;28;20028;-91
2022/01/14 05:22:06;;;;;;;102.80;42.25;;;1.80;99.90;;;;;;5055380;28;20431;-91
2022/01/14 05:24:44;;;;;;;112.50;44.70;;;1.80;99.90;;;;;;5063279;28;20035;-92
2022/01/14 05:27:10;;;;;;;125.63;46.70;;;1.80;99.90;;;;;;5075440;28;20089;-92
2022/01/14 05:29:35;;;;;;;112.45;46.13;;;1.80;99.90;;;;;;5093535;28;20024;-92
2022/01/14 05:32:21;;;;;;;105.63;42.10;;;1.80;99.90;;;;;;5075733;28;20464;-91
2022/01/14 05:34:47;;;;;;;114.35;44.28;;;1.70;99.90;;;;;;5093528;28;20020;-92
2022/01/14 05:37:13;;;;;;;126.78;45.17;;;1.70;99.90;;;;;;5075625;28;20046;-91
2022/01/14 05:39:44;;;;;;;97.38;41.70;;;1.70;99.90;;;;;;5093361;28;20451;-91
2022/01/14 05:42:10;;;;;;;83.07;37.90;;;1.70;99.90;;;;;;5098813;28;20024;-92
2022/01/14 05:45:05;;;;;;;82.97;35.22;;;1.70;99.90;;;;;;5095610;28;20020;-92
2022/01/14 05:47:38;;;;;;;107.70;42.08;;;1.70;99.90;;;;;;5089337;28;20024;-91
2022/01/14 05:50:07;;;;;;;91.03;37.88;;;1.70;99.90;;;;;;5055281;28;20554;-91
2022/01/14 05:52:32;;;;;;;87.78;35.80;;;1.60;99.90;;;;;;5088518;28;20532;-91
2022/01/14 05:54:58;;;;;;;99.32;38.75;;;1.60;99.90;;;;;;5088748;28;20048;-92
2022/01/14 05:57:47;;;;;;;87.40;36.20;;;1.60;99.90;;;;;;5088384;28;20056;-91
2022/01/14 06:00:16;;;;;;;81.65;34.83;;;1.60;99.90;;;;;;5100869;28;20429;-92
2022/01/14 06:02:49;;;;;;;89.10;36.90;;;1.60;99.90;;;;;;5095275;28;20052;-92
2022/01/14 06:05:23;;;;;;;92.45;35.97;;;1.50;99.90;;;;;;5095408;28;20171;-92
2022/01/14 06:07:48;;;;;;;80.35;34.63;;;1.50;99.90;;;;;;5113859;28;20476;-92
2022/01/14 06:10:14;;;;;;;94.97;37.30;;;1.40;99.90;;;;;;5095590;28;20023;-91
2022/01/14 06:12:43;;;;;;;90.90;36.13;;;1.40;99.90;;;;;;5096242;28;20072;-92
2022/01/14 06:15:09;;;;;;;88.20;36.30;;;1.40;99.90;;;;;;5099087;28;20024;-91
2022/01/14 06:17:35;;;;;;;97.45;40.08;;;1.30;99.90;;;;;;5092227;28;20027;-92
2022/01/14 06:20:19;;;;;;;74.97;31.50;;;1.30;99.90;;;;;;5078874;28;20077;-91
2022/01/14 06:22:45;;;;;;;80.50;32.80;;;1.30;99.90;;;;;;5114784;28;20031;-92
2022/01/14 06:25:11;;;;;;;88.15;33.30;;;1.30;99.90;;;;;;5099131;28;20058;-92
2022/01/14 06:27:42;;;;;;;95.40;36.72;;;1.20;99.90;;;;;;5099373;28;20023;-92
2022/01/14 06:30:09;;;;;;;86.22;34.30;;;1.20;99.90;;;;;;5117696;28;20059;-93
2022/01/14 06:32:41;;;;;;;91.22;35.65;;;1.20;99.90;;;;;;5099571;28;20112;-93
2022/01/14 06:35:41;;;;;;;75.25;32.30;;;1.10;99.90;;;;;;5099237;28;20020;-92
2022/01/14 06:38:07;;;;;;;75.90;32.22;;;1.00;99.90;;;;;;5093919;28;20024;-93
2022/01/14 06:40:33;;;;;;;77.47;32.30;;;1.00;99.90;;;;;;5079115;28;20028;-93
2022/01/14 06:43:01;;;;;;;78.10;32.15;;;1.00;99.90;;;;;;5079183;28;20114;-93
2022/01/14 06:45:26;;;;;;;70.40;30.75;;;1.00;99.90;;;;;;5079053;28;20024;-93
2022/01/14 06:47:52;;;;;;;72.43;30.73;;;1.00;99.90;;;;;;5079326;28;20026;-93
2022/01/14 06:50:26;;;;;;;66.10;29.52;;;0.90;99.90;;;;;;5079174;28;20092;-93
2022/01/14 06:52:52;;;;;;;68.78;29.60;;;0.90;99.90;;;;;;5098807;28;20077;-93
2022/01/14 06:55:19;;;;;;;68.90;29.50;;;0.90;99.90;;;;;;5082013;28;20012;-94
2022/01/14 06:58:00;;;;;;;70.22;28.15;;;0.90;99.90;;;;;;5079113;28;20353;-94
2022/01/14 07:00:25;;;;;;;71.60;28.65;;;0.90;99.90;;;;;;5079046;28;20084;-95
2022/01/14 07:02:51;;;;;;;56.67;25.70;;;0.90;99.90;;;;;;5079090;28;20051;-94
2022/01/14 07:05:28;;;;;;;51.33;23.35;;;0.90;99.90;;;;;;5079192;28;20024;-94
2022/01/14 07:07:53;;;;;;;56.20;23.85;;;0.90;99.90;;;;;;5078974;28;20357;-91
2022/01/14 07:10:19;;;;;;;63.30;26.52;;;0.90;99.90;;;;;;5078699;28;20030;-93
2022/01/14 07:13:20;;;;;;;65.57;26.58;;;0.90;99.90;;;;;;5078784;28;20031;-94
2022/01/14 07:15:45;;;;;;;56.17;24.95;;;0.90;99.90;;;;;;5078511;28;20024;-94
2022/01/14 07:18:13;;;;;;;44.05;22.48;;;0.80;99.90;;;;;;5078913;28;20030;-93
2022/01/14 07:20:39;;;;;;;50.22;22.23;;;0.80;99.90;;;;;;5078946;28;20031;-94
2022/01/14 07:23:57;;;;;;;46.05;20.52;;;0.80;99.90;;;;;;5078601;28;20027;-94
2022/01/14 07:26:23;;;;;;;63.95;24.80;;;0.80;99.90;;;;;;5078236;28;20448;-94
2022/01/14 07:29:33;;;;;;;55.97;24.77;;;0.80;99.90;;;;;;5078549;28;20031;-94
2022/01/14 07:31:58;;;;;;;54.83;24.98;;;0.60;99.90;;;;;;5078647;28;20024;-94
2022/01/14 07:34:26;;;;;;;48.42;22.23;;;0.60;99.90;;;;;;5078718;28;20456;-93
2022/01/14 07:36:52;;;;;;;55.20;24.75;;;0.50;99.90;;;;;;5078197;28;20468;-93
2022/01/14 07:39:19;;;;;;;51.42;22.40;;;0.40;99.90;;;;;;5078480;28;20031;-94
2022/01/14 07:42:08;;;;;;;50.60;22.58;;;0.40;99.90;;;;;;5078291;28;20414;-94
2022/01/14 07:44:34;;;;;;;63.35;27.38;;;0.40;99.90;;;;;;5078370;28;20063;-95
2022/01/14 07:47:00;;;;;;;64.15;24.75;;;0.40;99.90;;;;;;5078234;28;20051;-95
2022/01/14 07:50:03;;;;;;;50.10;22.65;;;0.30;99.90;;;;;;5078353;28;20032;-94
2022/01/14 07:52:29;;;;;;;59.53;25.05;;;0.30;99.90;;;;;;5078388;28;20024;-94
2022/01/14 07:54:54;;;;;;;53.25;22.73;;;0.20;99.90;;;;;;5078158;28;20019;-94
2022/01/14 08:00:42;;;;;;;55.45;22.52;;;0.20;99.90;;;;;;5096173;28;20076;-93
2022/01/14 08:03:41;;;;;;;51.47;21.35;;;0.20;99.90;;;;;;5078182;28;20062;-93
2022/01/14 08:06:09;;;;;;;45.75;21.08;;;0.20;99.90;;;;;;5077848;28;20036;-94
2022/01/14 08:08:35;;;;;;;51.80;23.25;;;0.20;99.90;;;;;;5096030;28;20028;-93
2022/01/14 08:14:23;;;;;;;58.58;23.08;;;0.20;99.90;;;;;;5096016;28;20031;-94
2022/01/14 08:17:00;;;;;;;56.50;24.67;;;0.20;99.90;;;;;;5077803;28;20028;-94
2022/01/14 08:19:26;;;;;;;57.30;25.73;;;0.20;99.90;;;;;;5078045;28;20034;-95
2022/01/14 08:21:52;;;;;;;69.28;27.70;;;0.30;99.90;;;;;;5062088;28;20039;-94
2022/01/14 08:31:28;;;;;;;70.70;29.58;;;1.10;99.90;;;;;;5095377;28;20077;-94
2022/01/14 08:34:17;;;;;;;72.53;30.25;;;1.20;99.90;;;;;;5077766;28;20036;-94
2022/01/14 08:36:43;;;;;;;68.97;29.27;;;1.30;99.90;;;;;;5077205;28;20023;-93
2022/01/14 08:39:08;;;;;;;66.57;25.67;;;1.50;99.90;;;;;;5077562;28;20020;-92
2022/01/14 08:44:56;;;;;;;72.30;27.73;;;1.60;99.90;;;;;;5095106;28;20023;-94
2022/01/14 08:47:25;;;;;;;71.10;28.40;;;1.70;99.90;;;;;;5076988;28;20063;-92
2022/01/14 08:49:50;;;;;;;60.15;26.50;;;1.80;99.90;;;;;;5086107;28;20051;-92
2022/01/14 08:52:53;;;;;;;57.20;26.65;;;1.90;99.90;;;;;;5085964;28;20057;-93
2022/01/14 08:55:20;;;;;;;54.00;24.80;;;1.90;99.90;;;;;;5075713;28;20024;-92
2022/01/14 08:57:47;;;;;;;56.90;25.88;;;1.90;99.90;;;;;;5075515;28;20476;-92
2022/01/14 09:00:15;;;;;;;62.47;28.63;;;2.00;99.90;;;;;;5075668;28;20111;-91
2022/01/14 09:02:54;;;;;;;59.22;24.38;;;2.00;99.90;;;;;;5094411;28;20037;-95
2022/01/14 09:05:20;;;;;;;58.13;27.05;;;2.20;99.90;;;;;;5076226;28;20386;-92
2022/01/14 09:07:53;;;;;;;54.83;26.85;;;2.30;99.90;;;;;;5075800;28;20027;-91
2022/01/14 09:10:20;;;;;;;57.30;26.23;;;2.40;99.90;;;;;;5075798;28;20024;-92
2022/01/14 09:13:02;;;;;;;57.33;26.42;;;2.40;99.90;;;;;;5075460;28;20066;-92
2022/01/14 09:15:28;;;;;;;59.97;27.80;;;2.50;99.90;;;;;;5075647;28;20537;-92
2022/01/14 09:18:02;;;;;;;57.40;25.92;;;2.50;99.90;;;;;;5093673;28;20028;-93
2022/01/14 09:20:28;;;;;;;68.97;25.67;;;2.60;99.90;;;;;;5076585;28;20491;-91
2022/01/14 09:23:24;;;;;;;48.58;24.05;;;2.70;99.90;;;;;;5075224;28;20074;-91
2022/01/14 09:25:55;;;;;;;62.15;27.60;;;2.70;99.90;;;;;;5075345;28;20032;-93
2022/01/14 09:28:21;;;;;;;62.40;26.98;;;2.60;99.90;;;;;;5074971;28;20442;-92
2022/01/14 09:31:05;;;;;;;57.47;26.80;;;2.70;99.90;;;;;;5093430;28;20024;-92
2022/01/14 09:33:30;;;;;;;54.90;27.33;;;2.80;99.90;;;;;;5075544;28;20028;-96
2022/01/14 09:36:34;;;;;;;65.22;28.15;;;2.80;99.90;;;;;;5076264;28;20084;-91
2022/01/14 09:39:00;;;;;;;57.95;28.25;;;2.90;99.90;;;;;;5076629;28;20391;-94
2022/01/14 09:41:37;;;;;;;54.17;26.10;;;3.00;99.90;;;;;;5075479;28;20028;-91
2022/01/14 09:44:03;;;;;;;58.55;26.58;;;3.10;99.90;;;;;;5075390;28;20032;-90
2022/01/14 09:46:30;;;;;;;63.30;29.33;;;3.20;99.90;;;;;;5075190;28;20039;-93
2022/01/14 09:48:56;;;;;;;58.03;28.20;;;3.20;99.90;;;;;;5078344;28;20030;-90
2022/01/14 09:51:28;;;;;;;61.83;28.67;;;3.30;99.90;;;;;;5097316;28;20379;-92
2022/01/14 09:53:54;;;;;;;53.88;26.40;;;3.30;99.90;;;;;;5078908;28;20046;-93
2022/01/14 09:56:43;;;;;;;61.03;28.73;;;3.30;99.90;;;;;;5079030;28;20103;-92
2022/01/14 09:59:09;;;;;;;67.07;29.20;;;3.40;99.90;;;;;;5079091;28;20085;-94
2022/01/14 10:01:47;;;;;;;61.80;28.92;;;3.50;99.90;;;;;;5079410;28;20429;-93
2022/01/14 10:04:18;;;;;;;60.25;27.42;;;3.50;99.90;;;;;;5079323;28;20074;-93
2022/01/14 10:06:45;;;;;;;53.05;27.05;;;3.50;99.90;;;;;;5078568;28;20535;-91
2022/01/14 10:09:37;;;;;;;64.60;28.60;;;3.50;99.90;;;;;;5079172;28;20048;-90
2022/01/14 10:12:10;;;;;;;60.78;28.05;;;3.60;99.90;;;;;;5078514;28;20502;-91
2022/01/14 10:14:43;;;;;;;62.65;28.67;;;3.60;99.90;;;;;;5078706;28;20797;-93
2022/01/14 10:17:11;;;;;;;59.42;28.23;;;3.60;99.90;;;;;;5079028;28;20451;-92
2022/01/14 10:19:44;;;;;;;65.50;30.67;;;3.70;99.90;;;;;;5078797;28;20032;-90
2022/01/14 10:22:42;;;;;;;63.50;29.42;;;3.70;99.90;;;;;;5078640;28;20391;-92
2022/01/14 10:25:19;;;;;;;71.57;30.17;;;3.80;99.90;;;;;;5057254;28;20067;-91
2022/01/14 10:27:55;;;;;;;61.25;27.63;;;3.80;99.90;;;;;;5096210;28;20411;-90
2022/01/14 10:30:30;;;;;;;60.55;27.48;;;3.90;99.90;;;;;;5096420;28;20107;-91
2022/01/14 10:33:08;;;;;;;59.72;26.58;;;3.80;99.90;;;;;;5078419;28;20059;-91
2022/01/14 10:36:11;;;;;;;74.93;29.40;;;4.00;99.90;;;;;;5078594;28;20020;-92
2022/01/14 10:38:46;;;;;;;62.92;27.65;;;4.00;99.90;;;;;;5058096;28;20457;-91
2022/01/14 10:41:18;;;;;;;54.97;26.88;;;4.10;99.90;;;;;;5096703;28;20028;-94
2022/01/14 10:44:32;;;;;;;59.15;27.52;;;4.20;99.90;;;;;;5079003;28;20016;-93
2022/01/14 10:51:18;;;;;;;56.83;25.45;;;4.40;99.90;;;;;;5058493;28;20466;-93
2022/01/14 10:53:53;;;;;;;54.58;26.67;;;4.50;99.90;;;;;;5091900;28;20032;-92
2022/01/14 10:56:22;;;;;;;56.85;27.30;;;4.60;99.90;;;;;;5092102;28;20028;-93
2022/01/14 10:58:56;;;;;;;60.67;28.02;;;4.60;99.90;;;;;;5076568;28;20103;-92
2022/01/14 11:01:24;;;;;;;49.95;23.70;;;4.70;99.90;;;;;;5092802;28;20160;-91
2022/01/14 11:04:10;;;;;;;56.38;26.33;;;4.80;99.90;;;;;;5098057;28;20114;-91
2022/01/14 11:06:41;;;;;;;45.33;23.27;;;4.80;99.90;;;;;;5075509;28;20404;-92
2022/01/14 11:09:19;;;;;;;45.15;22.02;;;4.80;99.90;;;;;;5075092;28;20524;-92
2022/01/14 11:11:47;;;;;;;49.42;23.80;;;4.90;99.90;;;;;;5076959;28;20491;-90
2022/01/14 11:14:18;;;;;;;48.28;21.55;;;4.90;99.90;;;;;;5094986;28;20468;-91
2022/01/14 11:16:45;;;;;;;49.55;22.35;;;4.90;99.90;;;;;;5078532;28;20027;-90
2022/01/14 11:19:13;;;;;;;43.58;22.60;;;5.00;99.90;;;;;;5095123;28;20065;-90
2022/01/14 11:25:01;;;;;;;45.95;23.00;;;5.10;99.90;;;;;;5095190;28;20039;-90
2022/01/14 11:27:27;;;;;;;50.45;23.85;;;5.10;99.90;;;;;;5093895;28;20119;-90
2022/01/14 11:29:58;;;;;;;44.00;22.83;;;5.00;99.90;;;;;;5076607;28;20450;-90
2022/01/14 11:32:50;;;;;;;45.70;21.95;;;5.00;99.90;;;;;;5076569;28;20035;-90
2022/01/14 11:35:23;;;;;;;49.50;24.02;;;5.00;99.90;;;;;;5077162;28;20016;-91
2022/01/14 11:38:34;;;;;;;46.15;22.08;;;5.00;99.90;;;;;;5076508;28;20024;-89
2022/01/14 11:41:02;;;;;;;49.65;24.42;;;5.10;99.90;;;;;;5056668;28;20032;-92
2022/01/14 11:43:43;;;;;;;47.70;23.40;;;5.00;99.90;;;;;;5070043;28;20035;-92
2022/01/14 11:46:13;;;;;;;45.60;22.52;;;5.10;99.90;;;;;;5076784;28;20032;-90
2022/01/14 11:48:48;;;;;;;42.15;22.50;;;5.10;99.90;;;;;;5094760;28;20016;-91
2022/01/14 11:51:27;;;;;;;41.40;22.50;;;5.10;99.90;;;;;;5092877;28;20500;-90
2022/01/14 11:54:03;;;;;;;39.10;21.05;;;5.20;99.90;;;;;;5094658;28;20035;-91
2022/01/14 11:56:32;;;;;;;44.95;22.42;;;5.20;99.90;;;;;;5076346;28;20386;-92
2022/01/14 11:59:22;;;;;;;35.95;20.55;;;5.20;99.90;;;;;;5091640;28;20027;-89
2022/01/14 12:01:53;;;;;;;38.55;20.98;;;5.30;99.90;;;;;;5081881;28;20032;-91
2022/01/14 12:04:19;;;;;;;44.80;20.88;;;5.20;99.90;;;;;;5092795;28;20089;-90
2022/01/14 12:06:51;;;;;;;37.53;20.27;;;5.30;99.90;;;;;;5089871;28;20028;-91
2022/01/14 12:09:18;;;;;;;45.85;21.65;;;5.30;99.90;;;;;;5094144;28;20106;-90
2022/01/14 12:11:45;;;;;;;36.10;19.90;;;5.30;99.90;;;;;;5093318;28;20028;-91
2022/01/14 12:14:12;;;;;;;33.75;18.10;;;5.30;99.90;;;;;;5114700;28;20482;-90
2022/01/14 12:19:15;;;;;;;31.20;17.98;;;5.40;99.90;;;;;;5114693;28;20027;-89
2022/01/14 12:21:50;;;;;;;33.30;17.63;;;5.50;99.90;;;;;;5114271;28;20019;-89
2022/01/14 12:24:22;;;;;;;33.70;17.20;;;5.50;99.90;;;;;;5114404;28;20570;-90
2022/01/14 12:27:08;;;;;;;30.98;16.95;;;5.50;99.90;;;;;;5111938;28;20394;-90
2022/01/14 12:29:51;;;;;;;37.70;18.30;;;5.50;99.90;;;;;;5075582;28;20035;-90
2022/01/14 12:32:48;;;;;;;33.90;17.45;;;5.50;99.90;;;;;;5093677;28;20030;-90
2022/01/14 12:35:19;;;;;;;37.22;17.90;;;5.50;99.90;;;;;;5091291;28;20026;-90
2022/01/14 12:38:00;;;;;;;32.95;16.45;;;5.50;99.90;;;;;;5113514;28;20168;-88
2022/01/14 12:40:31;;;;;;;24.38;14.90;;;5.60;99.90;;;;;;5113818;28;20050;-90
2022/01/14 12:43:03;;;;;;;31.95;16.83;;;5.70;99.90;;;;;;5104580;28;20032;-89
2022/01/14 12:46:12;;;;;;;27.50;14.88;;;5.80;99.90;;;;;;5093606;28;20024;-91
2022/01/14 12:48:52;;;;;;;24.73;14.68;;;5.90;99.90;;;;;;5075284;28;20033;-90
2022/01/14 12:51:20;;;;;;;25.00;14.50;;;5.80;99.90;;;;;;5075368;28;20033;-90
2022/01/14 12:53:47;;;;;;;32.90;16.13;;;5.90;99.90;;;;;;5093171;28;20099;-90
2022/01/14 12:56:36;;;;;;;28.02;15.25;;;5.90;99.90;;;;;;5093039;28;20027;-89
2022/01/14 12:59:41;;;;;;;21.50;12.93;;;6.00;99.90;;;;;;5075320;28;21125;-90
2022/01/14 13:02:32;;;;;;;25.13;12.13;;;6.00;99.90;;;;;;5106905;28;20410;-91
2022/01/14 13:08:09;;;;;;;18.98;11.50;;;6.20;99.90;;;;;;5107537;28;20585;-90
2022/01/14 13:10:35;;;;;;;20.60;11.93;;;6.10;99.90;;;;;;5095103;28;20052;-90
2022/01/14 13:13:04;;;;;;;20.80;12.07;;;6.10;99.90;;;;;;5095175;28;20373;-89
2022/01/14 13:15:31;;;;;;;25.05;12.80;;;6.10;99.90;;;;;;5113439;28;20049;-92
2022/01/14 13:18:20;;;;;;;28.05;11.68;;;6.10;99.90;;;;;;5113536;28;20091;-91
2022/01/14 13:20:45;;;;;;;20.00;11.13;;;6.10;99.90;;;;;;5113386;28;20020;-90
2022/01/14 13:23:18;;;;;;;21.83;11.40;;;6.10;99.90;;;;;;5094964;28;20034;-91
2022/01/14 13:29:05;;;;;;;19.30;11.20;;;6.20;99.90;;;;;;5112128;28;20093;-90
2022/01/14 13:31:36;;;;;;;17.73;9.95;;;6.20;99.90;;;;;;5095009;28;20032;-90
2022/01/14 13:34:02;;;;;;;18.40;10.18;;;6.20;99.90;;;;;;5079135;28;20028;-90
2022/01/14 13:36:27;;;;;;;19.40;9.57;;;6.20;99.90;;;;;;5113333;28;20483;-90
2022/01/14 13:39:19;;;;;;;21.35;9.35;;;6.30;99.90;;;;;;5098181;28;20547;-91
2022/01/14 13:41:45;;;;;;;21.33;8.70;;;6.30;99.90;;;;;;5074369;28;20758;-91
2022/01/14 13:44:38;;;;;;;13.95;7.90;;;6.30;99.90;;;;;;5092925;28;20108;-91
2022/01/14 13:47:11;;;;;;;14.00;8.13;;;6.30;99.90;;;;;;5074715;28;20024;-90
2022/01/14 13:49:37;;;;;;;12.73;6.90;;;6.30;99.90;;;;;;5092788;28;20020;-90
2022/01/14 13:52:29;;;;;;;12.73;7.38;;;6.20;99.90;;;;;;5101738;28;20046;-92
2022/01/14 13:54:54;;;;;;;15.27;7.15;;;6.20;99.90;;;;;;5094954;28;20035;-91
2022/01/14 13:58:01;;;;;;;17.63;7.80;;;6.20;99.90;;;;;;5094680;28;20027;-91
2022/01/14 14:00:30;;;;;;;15.52;6.53;;;6.20;99.90;;;;;;5094841;28;20035;-91
2022/01/14 14:02:57;;;;;;;14.77;8.25;;;6.30;99.90;;;;;;5094784;28;20081;-92
2022/01/14 14:05:37;;;;;;;9.82;6.32;;;6.30;99.90;;;;;;5112752;28;20028;-92
2022/01/14 14:08:35;;;;;;;8.32;4.82;;;6.30;99.90;;;;;;5095240;28;20434;-94
2022/01/14 14:16:57;;;;;;;7.32;3.35;;;6.80;99.90;;;;;;5090186;28;20034;-92
2022/01/14 14:19:24;;;;;;;6.28;3.45;;;6.90;99.90;;;;;;5074803;28;20036;-96
2022/01/14 14:25:50;;;;;;;8.10;3.22;;;7.00;99.90;;;;;;5093375;28;20511;-93
2022/01/14 14:28:57;;;;;;;8.38;4.13;;;7.10;99.90;;;;;;5074638;28;20040;-90
2022/01/14 14:31:32;;;;;;;8.63;4.00;;;7.10;99.90;;;;;;5092218;28;20051;-91
2022/01/14 14:34:08;;;;;;;12.73;4.32;;;7.10;99.90;;;;;;5076098;28;20488;-93
2022/01/14 14:36:36;;;;;;;;;;;7.10;99.90;;;;;;5110494;28;20048;-93
2022/01/14 14:39:06;;;;;;;10.52;3.40;;;7.20;99.90;;;;;;5078906;28;20276;-91
2022/01/14 14:41:33;;;;;;;10.80;3.20;;;7.20;99.90;;;;;;5096335;28;20023;-92
2022/01/14 14:44:17;;;;;;;9.23;3.22;;;7.20;99.90;;;;;;5096126;28;20431;-91
2022/01/14 14:46:43;;;;;;;8.48;3.53;;;7.10;99.90;;;;;;5077860;28;20040;-92
2022/01/14 14:49:12;;;;;;;8.30;3.70;;;7.10;99.90;;;;;;5078242;28;20103;-92
2022/01/14 14:51:39;;;;;;;7.00;3.78;;;7.00;99.90;;;;;;5077894;28;20023;-93
2022/01/14 14:54:25;;;;;;;9.10;3.95;;;7.10;99.90;;;;;;5078289;28;20541;-92